Time;durP1;ratioP1;P1;durP2;ratioP2;P2;SDS_P1;SDS_P2;PMS_P1;PMS_P2;Temp;Humidity;BMP_temperature;BMP_pressure;BME280_temperature;BME280_humidity;BME280_pressure;Samples;Min_cycle;Max_cycle;Signal;HPM_P1;HPM_P2
2022/04/18 00:02:18;;;;;;;2.87;2.50;;;;;;;7.92;86.55;96302.94;5003093;28;20225;-82
2022/04/18 00:04:45;;;;;;;2.90;2.30;;;;;;;7.85;87.50;96296.78;4993826;28;20214;-81
2022/04/18 00:07:13;;;;;;;2.80;2.60;;;;;;;7.80;88.58;96299.31;4986206;28;20212;-82
2022/04/18 00:09:40;;;;;;;3.10;2.80;;;;;;;7.77;89.37;96297.84;4981972;28;20212;-82
2022/04/18 00:12:08;;;;;;;4.80;2.97;;;;;;;7.78;89.13;96293.31;4975967;28;20208;-82
2022/04/18 00:14:35;;;;;;;3.20;2.90;;;;;;;7.84;89.20;96295.97;4994432;28;20241;-82
2022/04/18 00:17:02;;;;;;;3.67;2.50;;;;;;;7.92;88.75;96287.66;4988111;28;20228;-81
2022/04/18 00:19:31;;;;;;;2.50;2.30;;;;;;;7.98;88.40;96284.13;5006064;28;20205;-82
2022/04/18 00:21:59;;;;;;;3.80;2.80;;;;;;;7.96;87.74;96286.19;5036154;28;20210;-81
2022/04/18 00:27:01;;;;;;;2.40;2.20;;;;;;;7.88;88.47;96285.63;5028673;28;20305;-80
2022/04/18 00:30:23;;;;;;;2.80;2.43;;;;;;;7.79;86.37;96281.53;5011104;28;20214;-80
2022/04/18 00:32:56;;;;;;;3.30;2.50;;;;;;;7.61;88.63;96271.47;4938641;29;20214;-80
2022/04/18 00:35:24;;;;;;;3.60;2.33;;;;;;;7.68;89.23;96279.50;4988028;28;20291;-80
2022/04/18 00:37:51;;;;;;;2.90;2.60;;;;;;;7.66;89.99;96271.66;5003593;28;20199;-80
2022/04/18 00:40:18;;;;;;;5.37;2.63;;;;;;;7.66;90.39;96270.81;5012420;28;20296;-80
2022/04/18 00:42:45;;;;;;;4.20;3.00;;;;;;;7.64;90.34;96267.53;5016379;28;20214;-80
2022/04/18 00:45:15;;;;;;;3.47;2.80;;;;;;;7.55;90.82;96261.59;5007437;28;20200;-80
2022/04/18 00:47:42;;;;;;;3.20;2.90;;;;;;;7.49;91.11;96260.56;5013239;28;20445;-80
2022/04/18 00:50:10;;;;;;;3.47;3.00;;;;;;;7.49;91.90;96255.19;5010037;28;20199;-81
2022/04/18 00:52:40;;;;;;;2.97;2.77;;;;;;;7.36;92.31;96247.19;5014835;28;20298;-80
2022/04/18 00:55:09;;;;;;;2.90;2.50;;;;;;;7.31;93.32;96246.19;5012038;28;20210;-80
2022/04/18 00:57:38;;;;;;;2.80;2.50;;;;;;;7.29;94.10;96246.41;5027359;28;20214;-80
2022/04/18 01:00:08;;;;;;;2.80;2.50;;;;;;;7.19;93.02;96236.09;5009677;28;20215;-80
2022/04/18 01:02:35;;;;;;;3.80;2.70;;;;;;;7.02;93.96;96242.97;5004987;28;20273;-81
2022/04/18 01:05:02;;;;;;;4.23;3.27;;;;;;;7.03;93.90;96235.75;5008225;28;20226;-80
2022/04/18 01:07:30;;;;;;;3.60;2.50;;;;;;;7.06;93.24;96230.75;5005548;28;20265;-81
2022/04/18 01:09:59;;;;;;;3.57;2.33;;;;;;;7.04;93.34;96223.97;5023472;28;20207;-80
2022/04/18 01:12:26;;;;;;;3.53;2.60;;;;;;;7.12;93.30;96224.56;4997065;28;20218;-81
2022/04/18 01:15:13;;;;;;;2.40;2.20;;;;;;;7.16;92.65;96217.72;4987930;28;20251;-80
2022/04/18 01:18:06;;;;;;;2.57;2.23;;;;;;;7.24;93.09;96211.28;5015395;28;20211;-80
2022/04/18 01:20:52;;;;;;;3.03;2.33;;;;;;;7.31;92.05;96204.03;5021710;28;20225;-80
2022/04/18 01:29:05;;;;;;;3.30;2.70;;;;;;;7.26;92.50;96206.53;5058848;28;20210;-80
2022/04/18 01:31:36;;;;;;;4.10;2.40;;;;;;;7.23;92.19;96206.94;5044464;28;20260;-80
2022/04/18 01:34:04;;;;;;;2.83;2.50;;;;;;;7.23;92.88;96207.78;5048379;28;20288;-80
2022/04/18 01:36:33;;;;;;;3.83;2.40;;;;;;;7.17;92.74;96197.88;5056409;28;20313;-80
2022/04/18 01:39:04;;;;;;;4.10;2.50;;;;;;;7.17;93.21;96197.06;5041520;28;20198;-80
2022/04/18 01:41:31;;;;;;;4.33;2.93;;;;;;;7.14;93.13;96197.50;5057364;28;20293;-80
2022/04/18 01:43:59;;;;;;;3.63;2.47;;;;;;;7.05;93.65;96196.09;5058483;28;20206;-80
2022/04/18 01:46:27;;;;;;;4.03;2.67;;;;;;;7.03;93.92;96201.66;5058666;28;20205;-80
2022/04/18 01:48:54;;;;;;;5.20;2.27;;;;;;;6.98;94.29;96192.56;5063227;28;20206;-80
2022/04/18 01:51:22;;;;;;;3.33;2.47;;;;;;;6.93;94.69;96190.53;5042858;28;20213;-80
2022/04/18 01:53:50;;;;;;;3.53;2.33;;;;;;;6.90;94.45;96195.50;5043442;28;20223;-80
2022/04/18 02:00:26;;;;;;;3.77;2.23;;;;;;;6.93;95.28;96184.34;4906836;29;20241;-81
2022/04/18 02:02:53;;;;;;;3.07;2.70;;;;;;;6.94;95.22;96186.00;4952846;28;20217;-80
2022/04/18 02:05:20;;;;;;;3.13;2.63;;;;;;;6.91;95.57;96183.72;5046113;28;20217;-80
2022/04/18 02:07:48;;;;;;;3.70;2.90;;;;;;;6.92;96.59;96182.69;5038315;28;20278;-80
2022/04/18 02:10:21;;;;;;;4.33;2.97;;;;;;;6.91;95.47;96184.56;5049356;28;20205;-81
2022/04/18 02:12:48;;;;;;;3.40;2.60;;;;;;;6.90;95.38;96182.06;5044187;28;20224;-80
2022/04/18 02:15:21;;;;;;;3.43;2.90;;;;;;;6.84;95.00;96187.25;5042402;28;20228;-80
2022/04/18 02:18:00;;;;;;;3.07;2.67;;;;;;;6.65;94.95;96181.94;5041473;28;20197;-80
2022/04/18 02:23:32;;;;;;;3.73;2.77;;;;;;;6.42;98.44;96179.72;5054301;28;20229;-80
2022/04/18 02:26:25;;;;;;;3.33;2.97;;;;;;;6.34;98.07;96179.94;5037666;28;20242;-80
2022/04/18 02:29:03;;;;;;;4.07;3.00;;;;;;;6.30;99.57;96184.03;5022712;28;20284;-80
2022/04/18 02:34:27;;;;;;;3.17;2.87;;;;;;;6.30;99.13;96189.41;5035687;28;20235;-80
2022/04/18 02:36:57;;;;;;;3.30;2.90;;;;;;;6.27;100.00;96184.47;5045310;28;20218;-80
2022/04/18 02:39:28;;;;;;;3.40;2.80;;;;;;;6.30;100.00;96184.03;5015658;28;20343;-80
2022/04/18 02:45:52;;;;;;;6.03;2.90;;;;;;;6.29;99.90;96187.78;5000556;28;20217;-80
2022/04/18 02:48:55;;;;;;;6.77;2.57;;;;;;;6.36;99.98;96188.59;5024588;28;20206;-80
2022/04/18 02:51:27;;;;;;;3.47;3.13;;;;;;;6.32;99.30;96187.34;5021730;28;20207;-80
2022/04/18 02:53:56;;;;;;;3.03;2.77;;;;;;;6.37;99.71;96195.63;5025388;28;20207;-80
2022/04/18 02:56:23;;;;;;;3.23;2.93;;;;;;;6.39;100.00;96194.34;5039219;28;20226;-80
2022/04/18 02:58:50;;;;;;;3.17;2.87;;;;;;;6.41;99.34;96200.34;5042370;28;20199;-80
2022/04/18 03:01:19;;;;;;;3.17;2.80;;;;;;;6.37;99.66;96201.81;5029134;28;20206;-80
2022/04/18 03:03:47;;;;;;;5.90;3.37;;;;;;;6.32;100.00;96195.41;5044053;28;20190;-80
2022/04/18 03:06:14;;;;;;;3.53;2.90;;;;;;;6.30;100.00;96208.19;5026804;28;20220;-80
2022/04/18 03:08:41;;;;;;;3.63;3.13;;;;;;;6.24;100.00;96206.34;5035634;28;20237;-80
2022/04/18 03:11:10;;;;;;;4.03;3.27;;;;;;;6.14;100.00;96201.38;5031986;28;20202;-80
2022/04/18 03:13:43;;;;;;;5.03;3.43;;;;;;;6.05;100.00;96202.59;5033860;28;20210;-80
2022/04/18 03:16:18;;;;;;;3.80;3.10;;;;;;;6.01;100.00;96204.91;5037373;28;20306;-80
2022/04/18 03:18:47;;;;;;;4.40;3.83;;;;;;;6.00;100.00;96205.91;5029063;28;20206;-80
2022/04/18 03:58:58;;;;;;;4.83;3.40;;;;;;;5.17;100.00;96217.84;5033286;28;20210;-83
2022/04/18 04:01:25;;;;;;;4.30;3.10;;;;;;;5.21;100.00;96221.75;5033170;28;20260;-82
2022/04/18 04:03:52;;;;;;;4.60;3.60;;;;;;;5.21;100.00;96211.06;5056523;28;20272;-83
2022/04/18 04:06:20;;;;;;;6.30;3.07;;;;;;;5.24;100.00;96216.03;5039808;28;20211;-83
2022/04/18 04:08:48;;;;;;;3.60;3.00;;;;;;;5.21;100.00;96218.25;5044482;28;20245;-83
2022/04/18 04:11:17;;;;;;;3.10;2.67;;;;;;;5.12;100.00;96214.94;5045685;28;20205;-82
2022/04/18 04:13:47;;;;;;;4.97;3.00;;;;;;;5.14;100.00;96214.72;5039846;28;20225;-83
2022/04/18 04:16:19;;;;;;;4.43;2.90;;;;;;;5.12;100.00;96214.94;5048302;28;20258;-83
2022/04/18 04:18:49;;;;;;;4.70;2.97;;;;;;;5.09;100.00;96223.38;5037393;28;20198;-83
2022/04/18 04:21:16;;;;;;;4.27;3.43;;;;;;;4.98;100.00;96210.56;5041612;28;20221;-83
2022/04/18 04:23:44;;;;;;;3.53;3.00;;;;;;;5.02;100.00;96222.50;5034221;28;20318;-82
2022/04/18 04:26:30;;;;;;;4.87;3.17;;;;;;;4.93;100.00;96237.88;5037014;28;20221;-83
2022/04/18 04:28:58;;;;;;;4.87;3.27;;;;;;;4.73;100.00;96228.13;5041270;28;20207;-83
2022/04/18 04:31:52;;;;;;;4.77;3.37;;;;;;;4.63;100.00;96224.97;5043942;28;20207;-83
2022/04/18 04:34:20;;;;;;;4.70;3.30;;;;;;;4.70;100.00;96228.50;5037740;28;20203;-82
2022/04/18 04:37:01;;;;;;;4.50;3.20;;;;;;;4.76;100.00;96230.41;5039321;28;20248;-83
2022/04/18 04:39:28;;;;;;;3.73;3.13;;;;;;;4.76;100.00;96233.09;5036071;28;20194;-82
2022/04/18 04:41:55;;;;;;;7.20;3.30;;;;;;;4.80;100.00;96223.63;5040129;28;20266;-83
2022/04/18 04:44:23;;;;;;;3.17;2.77;;;;;;;4.97;100.00;96237.50;5046265;28;20221;-83
2022/04/18 04:47:04;;;;;;;5.40;3.13;;;;;;;4.99;100.00;96230.94;5039410;28;20289;-83
2022/04/18 04:49:32;;;;;;;3.50;2.97;;;;;;;5.00;100.00;96224.56;5039485;28;20201;-83
2022/04/18 04:52:17;;;;;;;3.33;3.03;;;;;;;5.05;100.00;96218.59;5042053;28;20645;-83
2022/04/18 04:54:45;;;;;;;4.20;3.50;;;;;;;5.05;100.00;96224.78;5038730;28;20198;-83
2022/04/18 04:57:19;;;;;;;3.53;3.23;;;;;;;5.11;100.00;96226.66;5056550;28;20264;-82
2022/04/18 05:00:18;;;;;;;3.20;2.90;;;;;;;5.20;100.00;96224.63;5034036;28;20248;-83
2022/04/18 05:03:10;;;;;;;3.47;3.10;;;;;;;5.32;100.00;96234.59;5056260;28;20247;-83
2022/04/18 05:05:38;;;;;;;3.70;3.10;;;;;;;5.37;100.00;96222.44;5060743;28;20216;-83
2022/04/18 05:08:11;;;;;;;3.53;3.23;;;;;;;5.44;100.00;96231.34;5059922;28;20205;-83
2022/04/18 05:10:38;;;;;;;4.77;3.27;;;;;;;5.51;100.00;96232.19;5068056;28;20210;-83
2022/04/18 05:13:14;;;;;;;5.40;3.20;;;;;;;5.48;100.00;96227.22;5056902;28;20209;-83
2022/04/18 05:15:43;;;;;;;4.23;3.30;;;;;;;5.50;100.00;96230.53;5066746;28;20262;-83
2022/04/18 05:18:44;;;;;;;3.70;3.30;;;;;;;5.52;100.00;96233.84;5037104;28;20214;-83
2022/04/18 05:21:12;;;;;;;4.07;3.10;;;;;;;5.46;100.00;96234.63;5060150;28;20224;-83
2022/04/18 05:23:39;;;;;;;3.17;2.83;;;;;;;5.39;100.00;96223.88;5058488;28;20222;-83
2022/04/18 05:26:07;;;;;;;3.47;3.00;;;;;;;5.40;100.00;96219.34;5060031;28;20213;-83
2022/04/18 05:28:37;;;;;;;3.17;2.87;;;;;;;5.42;100.00;96218.16;5062050;28;20190;-83
2022/04/18 05:31:08;;;;;;;4.10;3.00;;;;;;;5.46;100.00;96213.19;5061818;28;20203;-83
2022/04/18 05:33:38;;;;;;;7.40;6.23;;;;;;;5.56;100.00;96229.72;5062399;28;20292;-82
2022/04/18 05:36:20;;;;;;;11.60;7.53;;;;;;;5.47;100.00;96228.25;5061489;28;20255;-83
2022/04/18 05:38:48;;;;;;;8.97;6.57;;;;;;;5.36;100.00;96223.47;5071201;28;20202;-83
2022/04/18 05:41:20;;;;;;;12.60;7.20;;;;;;;5.42;100.00;96215.47;5057378;28;20221;-83
2022/04/18 05:43:49;;;;;;;8.50;5.67;;;;;;;5.33;100.00;96219.34;5065261;28;20206;-83
2022/04/18 05:46:19;;;;;;;8.80;6.77;;;;;;;5.32;100.00;96218.53;5069350;28;20262;-83
2022/04/18 05:48:47;;;;;;;14.00;8.40;;;;;;;5.36;100.00;96221.59;5052992;28;20234;-83
2022/04/18 05:51:14;;;;;;;13.40;8.33;;;;;;;5.37;100.00;96217.06;5056358;28;20209;-83
2022/04/18 05:53:44;;;;;;;11.37;8.07;;;;;;;5.32;100.00;96217.69;5047847;28;20202;-83
2022/04/18 05:56:17;;;;;;;11.67;7.53;;;;;;;5.31;100.00;96222.22;5065113;28;20366;-83
2022/04/18 05:59:13;;;;;;;11.23;7.43;;;;;;;5.28;100.00;96222.59;5041620;28;20206;-83
2022/04/18 06:01:43;;;;;;;8.10;6.30;;;;;;;5.33;100.00;96222.03;5056314;28;20221;-83
2022/04/18 06:04:16;;;;;;;7.17;6.00;;;;;;;5.40;100.00;96222.03;5061375;28;20263;-83
2022/04/18 06:06:51;;;;;;;5.73;4.50;;;;;;;5.42;100.00;96217.31;5064479;28;20216;-83
2022/04/18 06:09:21;;;;;;;5.83;4.43;;;;;;;5.39;100.00;96225.75;5059660;28;20209;-83
2022/04/18 06:11:48;;;;;;;5.27;4.33;;;;;;;5.42;100.00;96222.66;5060523;28;20217;-83
2022/04/18 06:14:26;;;;;;;5.77;4.83;;;;;;;5.45;100.00;96231.09;5048669;28;20196;-83
2022/04/18 06:16:53;;;;;;;4.70;3.87;;;;;;;5.49;100.00;96236.91;5060401;28;20261;-83
2022/04/18 06:19:22;;;;;;;5.27;4.10;;;;;;;5.43;100.00;96230.50;5062644;28;20210;-83
2022/04/18 06:21:50;;;;;;;6.47;4.40;;;;;;;5.43;100.00;96235.03;5062768;28;20209;-83
2022/04/18 06:24:18;;;;;;;6.40;4.50;;;;;;;5.43;100.00;96224.31;5065643;28;20257;-83
2022/04/18 06:27:07;;;;;;;7.33;5.67;;;;;;;5.48;100.00;96232.56;5052796;28;20209;-83
2022/04/18 06:29:37;;;;;;;5.90;4.60;;;;;;;5.43;100.00;96225.16;5058224;28;20212;-83
2022/04/18 06:32:06;;;;;;;5.73;4.70;;;;;;;5.48;100.00;96232.56;5061117;28;20205;-83
2022/04/18 06:34:33;;;;;;;6.07;4.40;;;;;;;5.46;100.00;96231.94;5062001;28;20193;-83
2022/04/18 06:37:14;;;;;;;7.83;5.07;;;;;;;5.44;100.00;96231.34;5065948;28;20316;-83
2022/04/18 06:40:01;;;;;;;7.33;5.47;;;;;;;5.45;100.00;96233.78;5014132;28;20248;-83
2022/04/18 06:42:39;;;;;;;15.03;9.10;;;;;;;5.40;100.00;96230.06;5056882;28;20209;-83
2022/04/18 06:45:13;;;;;;;6.50;5.03;;;;;;;5.30;100.00;96231.28;5053340;28;20220;-83
2022/04/18 06:47:41;;;;;;;6.47;5.23;;;;;;;5.20;100.00;96228.13;5068805;28;20295;-83
2022/04/18 06:50:16;;;;;;;5.50;4.37;;;;;;;5.25;100.00;96223.03;5060226;28;20213;-83
2022/04/18 06:53:04;;;;;;;7.13;4.83;;;;;;;5.28;100.00;96224.47;5020921;28;20205;-82
2022/04/18 06:58:51;;;;;;;5.60;4.80;;;;;;;5.46;100.00;96232.75;5065646;28;20233;-83
2022/04/18 07:01:19;;;;;;;5.00;4.37;;;;;;;5.51;100.00;96229.50;5069986;28;20287;-83
2022/04/18 07:03:46;;;;;;;6.67;5.20;;;;;;;5.49;100.00;96226.19;5069454;28;20260;-82
2022/04/18 07:06:13;;;;;;;6.57;4.47;;;;;;;5.39;100.00;96223.06;5076549;28;20200;-83
2022/04/18 07:08:40;;;;;;;3.87;3.47;;;;;;;5.46;100.00;96232.75;5058399;28;20208;-83
2022/04/18 07:11:33;;;;;;;6.23;5.17;;;;;;;5.55;100.00;96239.59;5085419;28;20205;-85
2022/04/18 07:14:23;;;;;;;4.60;4.00;;;;;;;5.56;100.00;96241.25;5069143;28;20192;-85
2022/04/18 07:17:05;;;;;;;4.60;3.80;;;;;;;5.56;100.00;96227.03;5060021;28;20208;-84
2022/04/18 07:19:43;;;;;;;5.73;3.90;;;;;;;5.62;100.00;96228.88;5061802;28;20212;-85
2022/04/18 07:22:35;;;;;;;4.10;3.50;;;;;;;5.64;100.00;96225.00;5065569;28;20208;-85
2022/04/18 07:25:34;;;;;;;4.30;3.43;;;;;;;5.59;100.00;96213.25;5064794;28;20228;-85
2022/04/18 07:28:41;;;;;;;5.63;3.23;;;;;;;5.59;100.00;96213.25;5082922;28;20283;-85
2022/04/18 07:31:52;;;;;;;4.60;3.37;;;;;;;5.64;100.00;96208.09;5065217;28;20320;-85
2022/04/18 07:34:54;;;;;;;3.40;2.97;;;;;;;5.73;100.00;96206.88;5068543;28;20206;-85
2022/04/18 07:41:05;;;;;;;3.97;3.03;;;;;;;5.79;100.00;96194.50;5067751;28;20230;-84
2022/04/18 07:43:57;;;;;;;3.73;3.07;;;;;;;5.90;100.00;96210.84;5083378;28;20200;-85
2022/04/18 07:46:29;;;;;;;4.87;3.30;;;;;;;5.97;100.00;96214.34;5065989;28;20212;-85
2022/04/18 07:48:57;;;;;;;3.10;2.80;;;;;;;6.11;100.00;96206.34;5064661;28;20209;-85
2022/04/18 07:51:42;;;;;;;3.90;2.83;;;;;;;6.25;100.00;96213.34;5065545;28;20209;-87
2022/04/18 07:54:20;;;;;;;2.80;2.60;;;;;;;6.62;100.00;96193.94;5054880;28;20209;-85
2022/04/18 07:56:48;;;;;;;3.63;2.77;;;;;;;7.11;100.00;96214.03;5070364;28;20229;-86
2022/04/18 07:59:18;;;;;;;5.30;2.90;;;;;;;7.46;100.00;96207.28;5063491;28;20235;-85
2022/04/18 08:01:47;;;;;;;3.20;2.90;;;;;;;7.91;100.00;96212.63;5060151;28;20208;-85
2022/04/18 08:04:27;;;;;;;4.87;3.40;;;;;;;8.08;98.02;96205.63;5067226;28;20212;-85
2022/04/18 08:06:55;;;;;;;4.30;3.90;;;;;;;8.42;96.42;96196.28;5066739;28;20217;-85
2022/04/18 08:09:24;;;;;;;4.53;3.57;;;;;;;8.98;91.87;96201.56;5064554;28;20232;-85
2022/04/18 08:11:52;;;;;;;4.00;3.40;;;;;;;9.44;86.13;96208.28;5065831;28;20216;-85
2022/04/18 08:14:27;;;;;;;3.83;2.87;;;;;;;10.01;83.23;96200.66;5060551;28;20295;-85
2022/04/18 08:17:06;;;;;;;3.20;2.90;;;;;;;10.45;80.45;96202.09;5057952;28;20215;-85
2022/04/18 08:19:40;;;;;;;5.47;3.47;;;;;;;10.66;76.97;96206.91;5060702;28;20197;-85
2022/04/18 08:22:09;;;;;;;5.63;4.37;;;;;;;10.51;75.49;96190.34;5052633;28;20209;-86
2022/04/18 08:24:56;;;;;;;6.23;3.60;;;;;;;10.84;75.03;96197.88;5083139;28;20294;-85
2022/04/18 08:27:42;;;;;;;5.20;3.50;;;;;;;11.10;75.63;96194.69;5071216;28;20224;-86
2022/04/18 08:30:14;;;;;;;4.17;3.77;;;;;;;11.24;75.47;96187.94;5064738;28;20209;-85
2022/04/18 08:32:51;;;;;;;4.30;3.57;;;;;;;11.37;74.00;96198.50;5059867;28;20216;-85
2022/04/18 08:35:19;;;;;;;4.10;3.70;;;;;;;11.38;75.17;96192.03;5069781;28;20229;-86
2022/04/18 08:37:46;;;;;;;4.13;3.70;;;;;;;11.50;74.01;96191.16;5057732;28;20230;-85
2022/04/18 08:40:42;;;;;;;5.00;4.33;;;;;;;11.62;74.11;96191.97;5083584;28;20204;-86
2022/04/18 08:43:11;;;;;;;4.67;3.57;;;;;;;11.80;74.25;96197.22;5065263;28;20267;-86
2022/04/18 08:45:39;;;;;;;4.67;3.90;;;;;;;11.90;72.03;96192.00;5064773;28;20273;-86
2022/04/18 08:53:39;;;;;;;4.97;4.23;;;;;;;12.06;71.06;96180.41;5060786;28;20265;-85
2022/04/18 08:56:07;;;;;;;4.67;3.83;;;;;;;12.22;72.38;96177.97;5066650;28;20205;-86
2022/04/18 08:58:36;;;;;;;5.17;4.23;;;;;;;12.21;70.97;96176.31;5062949;28;20316;-86
2022/04/18 09:01:06;;;;;;;4.53;3.80;;;;;;;12.25;70.03;96177.47;5060608;28;20238;-85
2022/04/18 09:04:07;;;;;;;4.43;3.53;;;;;;;12.42;69.99;96165.56;5067830;28;20264;-85
2022/04/18 09:06:42;;;;;;;4.47;3.70;;;;;;;12.51;66.70;96164.09;5067952;28;20208;-86
2022/04/18 09:09:28;;;;;;;4.53;3.63;;;;;;;12.41;69.01;96163.13;5059535;28;20248;-86
2022/04/18 09:12:01;;;;;;;4.47;3.90;;;;;;;12.64;67.75;96152.09;5066320;28;20203;-86
2022/04/18 09:14:36;;;;;;;4.00;3.53;;;;;;;12.66;65.48;96158.09;5062060;28;20220;-86
2022/04/18 09:17:03;;;;;;;4.33;3.40;;;;;;;12.79;65.58;96156.94;5056293;28;20202;-86
2022/04/18 09:20:09;;;;;;;3.60;3.30;;;;;;;12.89;65.75;96144.34;5083983;28;20220;-86
2022/04/18 09:22:43;;;;;;;4.60;3.80;;;;;;;13.01;63.54;96146.97;5061913;28;20231;-86
2022/04/18 09:25:15;;;;;;;3.67;3.37;;;;;;;12.82;64.78;96138.28;5064741;28;20241;-86
2022/04/18 09:27:48;;;;;;;4.50;3.50;;;;;;;12.87;64.67;96140.25;5065601;28;20209;-86
2022/04/18 09:30:19;;;;;;;5.13;3.70;;;;;;;12.97;65.10;96134.16;5061728;28;20274;-86
2022/04/18 09:32:57;;;;;;;5.23;3.77;;;;;;;13.15;62.49;96133.88;5061337;28;20219;-86
2022/04/18 09:35:44;;;;;;;4.67;4.03;;;;;;;13.20;62.67;96123.09;5072842;28;20208;-86
2022/04/18 09:38:12;;;;;;;5.33;4.10;;;;;;;13.35;62.32;96130.63;5064843;28;20315;-86
2022/04/18 09:41:15;;;;;;;4.80;3.80;;;;;;;13.39;62.32;96123.59;5003866;28;20278;-86
2022/04/18 09:43:46;;;;;;;3.63;3.33;;;;;;;13.53;62.80;96117.53;5048813;28;20247;-86
2022/04/18 09:46:22;;;;;;;4.07;3.67;;;;;;;13.66;61.70;96120.94;5060569;28;20244;-87
2022/04/18 09:49:06;;;;;;;3.77;3.30;;;;;;;13.66;60.47;96116.31;5051041;28;20219;-86
2022/04/18 09:51:47;;;;;;;4.73;3.57;;;;;;;13.73;61.30;96114.22;5059635;28;20208;-87
2022/04/18 09:54:20;;;;;;;4.17;3.60;;;;;;;13.67;60.55;96111.72;5065168;28;20208;-86
2022/04/18 09:56:51;;;;;;;4.53;3.63;;;;;;;14.01;59.20;96113.97;5062374;28;20229;-86
2022/04/18 09:59:19;;;;;;;7.87;5.17;;;;;;;13.90;59.17;96114.94;5056921;28;20278;-86
2022/04/18 10:01:47;;;;;;;4.83;4.23;;;;;;;14.00;57.85;96103.34;5062645;28;20209;-86
2022/04/18 10:04:15;;;;;;;4.07;3.57;;;;;;;14.03;59.48;96105.56;5062216;28;20205;-86
2022/04/18 10:06:45;;;;;;;4.80;3.80;;;;;;;14.24;58.49;96103.84;5072066;28;20347;-88
2022/04/18 10:09:15;;;;;;;4.33;3.73;;;;;;;14.28;58.75;96096.81;5052501;28;20216;-87
2022/04/18 10:11:44;;;;;;;4.20;3.80;;;;;;;14.33;57.60;96100.38;5060959;28;20228;-86
2022/04/18 10:14:11;;;;;;;4.67;3.60;;;;;;;14.46;57.46;96092.91;5067561;28;20212;-86
2022/04/18 10:16:40;;;;;;;3.87;3.43;;;;;;;14.62;56.79;96092.75;5066259;28;20255;-86
2022/04/18 10:19:19;;;;;;;4.20;3.80;;;;;;;14.56;55.87;96087.53;5057691;28;20247;-87
2022/04/18 10:21:53;;;;;;;5.37;3.30;;;;;;;14.73;54.56;96080.03;5067386;28;20215;-88
2022/04/18 10:24:57;;;;;;;5.37;3.77;;;;;;;14.88;55.49;96082.84;5056284;28;20224;-87
2022/04/18 10:27:56;;;;;;;3.50;3.20;;;;;;;14.89;54.88;96072.78;5071507;28;20276;-87
2022/04/18 10:30:25;;;;;;;3.77;3.10;;;;;;;14.77;54.66;96081.16;5063164;28;20228;-86
2022/04/18 10:32:53;;;;;;;3.33;3.03;;;;;;;14.93;55.78;96077.44;5062532;28;20213;-86
2022/04/18 10:35:23;;;;;;;3.93;3.47;;;;;;;14.94;53.65;96059.22;5065960;28;20215;-87
2022/04/18 10:37:54;;;;;;;4.20;3.80;;;;;;;14.87;53.57;96067.63;5053356;28;20216;-87
2022/04/18 10:40:24;;;;;;;3.90;3.53;;;;;;;14.94;54.27;96060.03;5058633;28;20296;-87
2022/04/18 10:42:51;;;;;;;3.60;3.30;;;;;;;15.01;52.88;96059.78;5059492;28;20236;-87
2022/04/18 10:45:24;;;;;;;5.30;4.07;;;;;;;15.11;55.08;96057.13;5064294;28;20215;-86
2022/04/18 10:48:02;;;;;;;4.37;3.97;;;;;;;15.11;53.57;96047.06;5058841;28;20204;-87
2022/04/18 10:50:34;;;;;;;4.63;4.07;;;;;;;15.15;54.59;96047.34;5059605;28;20232;-88
2022/04/18 10:53:17;;;;;;;4.00;3.60;;;;;;;15.23;55.27;96054.16;5064309;28;20232;-87
2022/04/18 10:56:11;;;;;;;4.87;4.00;;;;;;;15.47;55.82;96049.91;5063483;28;20214;-86
2022/04/18 10:58:38;;;;;;;4.50;4.10;;;;;;;15.67;53.64;96033.63;5059753;28;20217;-87
2022/04/18 11:01:09;;;;;;;4.30;3.90;;;;;;;15.73;53.19;96027.13;5056510;28;20268;-88
2022/04/18 11:03:57;;;;;;;5.27;4.17;;;;;;;15.67;52.71;96022.75;5060610;28;20262;-87
2022/04/18 11:06:45;;;;;;;3.63;3.33;;;;;;;15.75;49.96;96029.56;5065848;28;20204;-87
2022/04/18 11:09:14;;;;;;;3.80;3.20;;;;;;;15.73;49.85;96018.16;5063908;28;20227;-88
2022/04/18 11:11:47;;;;;;;4.93;3.50;;;;;;;15.94;51.76;96019.78;5057940;28;20221;-91
2022/04/18 11:14:17;;;;;;;4.20;3.50;;;;;;;16.15;50.87;96015.16;5066260;28;20208;-87
2022/04/18 11:16:53;;;;;;;5.37;3.80;;;;;;;16.20;50.60;96015.16;5060733;28;20327;-87
2022/04/18 11:19:23;;;;;;;4.77;3.90;;;;;;;16.15;50.42;96007.81;5069738;28;20265;-87
2022/04/18 11:22:10;;;;;;;5.53;4.80;;;;;;;16.31;50.59;96022.22;5069576;28;20208;-88
2022/04/18 11:24:39;;;;;;;4.43;4.03;;;;;;;16.27;50.83;96011.06;5083674;28;20279;-88
2022/04/18 11:27:10;;;;;;;4.40;4.00;;;;;;;16.10;50.39;96015.16;5069024;28;20197;-87
2022/04/18 11:29:37;;;;;;;4.13;3.73;;;;;;;15.99;51.53;96014.31;5061587;28;20208;-87
2022/04/18 11:32:06;;;;;;;4.33;3.93;;;;;;;15.82;52.50;96002.91;5059897;28;20284;-88
2022/04/18 11:34:35;;;;;;;4.93;4.27;;;;;;;16.01;53.09;96001.25;5064616;28;20312;-88
2022/04/18 11:37:05;;;;;;;4.60;3.73;;;;;;;16.37;51.17;96004.78;5067198;28;20211;-88
2022/04/18 11:39:43;;;;;;;4.93;4.07;;;;;;;16.25;50.43;95996.06;5068194;28;20223;-88
2022/04/18 11:42:16;;;;;;;4.63;3.43;;;;;;;16.25;50.21;96007.78;5059052;28;20243;-87
2022/04/18 11:44:44;;;;;;;3.67;3.37;;;;;;;16.42;49.89;95996.59;5062561;28;20204;-87
2022/04/18 11:47:13;;;;;;;3.97;3.43;;;;;;;16.76;49.72;96001.47;5063326;28;20192;-88
2022/04/18 11:49:44;;;;;;;5.03;3.53;;;;;;;17.07;47.94;96004.88;5057195;28;20215;-87
2022/04/18 11:52:19;;;;;;;4.03;3.60;;;;;;;16.87;46.18;96001.13;5062974;28;20202;-88
2022/04/18 11:55:14;;;;;;;3.40;3.10;;;;;;;16.95;46.24;95995.09;5063843;28;20204;-86
2022/04/18 11:57:45;;;;;;;3.37;2.90;;;;;;;17.11;46.60;95990.38;5060765;28;20232;-87
2022/04/18 12:00:14;;;;;;;3.60;3.30;;;;;;;17.23;43.51;95992.78;5061257;28;20221;-87
2022/04/18 12:08:19;;;;;;;3.10;2.80;;;;;;;17.11;43.64;95986.84;5071531;28;20294;-89
2022/04/18 12:10:47;;;;;;;2.87;2.57;;;;;;;17.00;41.84;95977.91;5061964;28;20201;-87
2022/04/18 12:13:16;;;;;;;3.03;2.67;;;;;;;17.03;41.28;95978.16;5062710;28;20209;-87
2022/04/18 12:15:44;;;;;;;2.70;2.50;;;;;;;17.03;41.78;95972.69;5072224;28;20207;-88
2022/04/18 12:18:14;;;;;;;5.93;3.20;;;;;;;17.13;43.13;95976.47;5065126;28;20205;-89
2022/04/18 12:20:43;;;;;;;2.50;2.30;;;;;;;17.32;42.95;95975.56;5063368;28;20205;-87
2022/04/18 12:23:15;;;;;;;4.03;2.90;;;;;;;17.34;43.49;95970.66;5066740;28;20207;-87
2022/04/18 12:25:45;;;;;;;2.87;2.63;;;;;;;17.47;40.49;95965.63;5055330;28;20251;-87
2022/04/18 12:28:12;;;;;;;3.13;2.83;;;;;;;17.58;41.02;95967.22;5056796;28;20202;-87
2022/04/18 12:30:41;;;;;;;3.00;2.73;;;;;;;17.77;41.76;95962.75;5061071;28;20204;-87
2022/04/18 12:33:16;;;;;;;3.20;2.90;;;;;;;17.73;43.29;95964.41;5067564;28;20604;-87
2022/04/18 12:35:46;;;;;;;4.20;3.17;;;;;;;17.77;42.27;95962.75;5060132;28;20212;-87
2022/04/18 12:38:14;;;;;;;4.37;3.00;;;;;;;17.63;41.67;95956.28;5084140;28;20262;-87
2022/04/18 12:40:44;;;;;;;3.93;2.70;;;;;;;17.62;42.43;95954.63;5063269;28;20236;-87
2022/04/18 12:43:14;;;;;;;3.10;2.80;;;;;;;17.76;43.12;95956.47;5057939;28;20220;-87
2022/04/18 12:45:48;;;;;;;3.00;2.53;;;;;;;17.99;42.98;95949.44;5069073;28;20300;-88
2022/04/18 12:48:20;;;;;;;2.60;2.40;;;;;;;18.06;40.11;95944.44;5065936;28;20209;-87
2022/04/18 12:50:48;;;;;;;3.30;3.00;;;;;;;18.12;42.27;95932.34;5062027;28;20230;-88
2022/04/18 12:53:16;;;;;;;4.10;2.83;;;;;;;18.22;41.33;95927.91;5061318;28;20205;-88
2022/04/18 12:55:44;;;;;;;4.37;2.70;;;;;;;18.24;40.77;95934.72;5067018;28;20202;-88
2022/04/18 12:58:19;;;;;;;3.00;2.63;;;;;;;18.40;40.58;95932.63;5053445;28;20443;-87
2022/04/18 13:00:51;;;;;;;3.33;2.90;;;;;;;18.34;41.76;95922.88;5061976;28;20220;-88
2022/04/18 13:03:20;;;;;;;2.87;2.60;;;;;;;18.26;40.94;95918.03;5070350;28;20281;-88
2022/04/18 13:05:49;;;;;;;3.87;2.80;;;;;;;18.26;41.09;95915.31;5051166;28;20210;-88
2022/04/18 13:08:18;;;;;;;4.00;2.73;;;;;;;18.34;39.47;95906.47;5055601;28;20210;-87
2022/04/18 13:10:46;;;;;;;4.07;2.60;;;;;;;18.22;37.87;95908.78;5058695;28;20276;-88
2022/04/18 13:13:16;;;;;;;5.57;2.87;;;;;;;18.22;41.05;95901.38;5069305;28;20272;-88
2022/04/18 13:15:46;;;;;;;5.00;2.60;;;;;;;18.61;41.23;95909.47;5054268;28;20205;-88
2022/04/18 13:18:22;;;;;;;3.20;2.43;;;;;;;18.59;38.07;95902.66;5062104;28;20216;-88
2022/04/18 13:20:50;;;;;;;3.60;2.60;;;;;;;18.59;40.16;95891.72;5053824;28;20229;-88
2022/04/18 13:23:17;;;;;;;3.67;2.60;;;;;;;18.70;40.04;95888.59;5064809;28;20482;-87